sensor_id;sensor_type;location;lat;lon;timestamp;pressure;altitude;pressure_sealevel;temperature;humidity
43553;BME280;29153;42.696;23.218;2023-06-19T00:00:01;94574.61;;;15.92;100.00
43553;BME280;29153;42.696;23.218;2023-06-19T00:02:31;94580.10;;;15.87;100.00
43553;BME280;29153;42.696;23.218;2023-06-19T00:04:59;94578.21;;;15.76;100.00
43553;BME280;29153;42.696;23.218;2023-06-19T00:07:32;94580.95;;;15.74;100.00
43553;BME280;29153;42.696;23.218;2023-06-19T00:09:58;94577.86;;;15.69;100.00
43553;BME280;29153;42.696;23.218;2023-06-19T00:12:25;94570.31;;;15.71;100.00
43553;BME280;29153;42.696;23.218;2023-06-19T00:14:54;94569.89;;;15.67;100.00
43553;BME280;29153;42.696;23.218;2023-06-19T00:17:22;94571.84;;;15.64;100.00
43553;BME280;29153;42.696;23.218;2023-06-19T00:19:52;94570.64;;;15.70;100.00
43553;BME280;29153;42.696;23.218;2023-06-19T00:22:20;94571.61;;;15.74;100.00
43553;BME280;29153;42.696;23.218;2023-06-19T00:24:49;94563.81;;;15.75;100.00
43553;BME280;29153;42.696;23.218;2023-06-19T00:27:18;94568.99;;;15.82;100.00
43553;BME280;29153;42.696;23.218;2023-06-19T00:29:51;94558.31;;;15.82;100.00
43553;BME280;29153;42.696;23.218;2023-06-19T00:32:15;94561.27;;;15.81;100.00
43553;BME280;29153;42.696;23.218;2023-06-19T00:34:42;94563.28;;;15.86;100.00
43553;BME280;29153;42.696;23.218;2023-06-19T00:37:10;94564.79;;;15.90;100.00
43553;BME280;29153;42.696;23.218;2023-06-19T00:39:40;94560.36;;;15.85;100.00
43553;BME280;29153;42.696;23.218;2023-06-19T00:42:08;94561.02;;;15.80;100.00
43553;BME280;29153;42.696;23.218;2023-06-19T00:44:35;94562.91;;;15.79;100.00
43553;BME280;29153;42.696;23.218;2023-06-19T00:47:03;94556.18;;;15.82;100.00
43553;BME280;29153;42.696;23.218;2023-06-19T00:49:31;94554.72;;;15.76;100.00
43553;BME280;29153;42.696;23.218;2023-06-19T00:52:02;94557.39;;;15.87;100.00
43553;BME280;29153;42.696;23.218;2023-06-19T00:54:30;94554.72;;;15.87;100.00
43553;BME280;29153;42.696;23.218;2023-06-19T00:56:59;94544.04;;;15.87;100.00
43553;BME280;29153;42.696;23.218;2023-06-19T00:59:26;94546.46;;;15.86;100.00
43553;BME280;29153;42.696;23.218;2023-06-19T01:01:55;94539.23;;;15.86;100.00
43553;BME280;29153;42.696;23.218;2023-06-19T01:04:23;94533.47;;;15.82;100.00
43553;BME280;29153;42.696;23.218;2023-06-19T01:06:58;94530.42;;;15.75;100.00
43553;BME280;29153;42.696;23.218;2023-06-19T01:09:32;94529.95;;;15.73;100.00
43553;BME280;29153;42.696;23.218;2023-06-19T01:12:08;94531.41;;;15.68;100.00
43553;BME280;29153;42.696;23.218;2023-06-19T01:14:46;94531.16;;;15.67;100.00
43553;BME280;29153;42.696;23.218;2023-06-19T01:17:10;94527.28;;;15.62;100.00
43553;BME280;29153;42.696;23.218;2023-06-19T01:19:43;94526.45;;;15.53;100.00
43553;BME280;29153;42.696;23.218;2023-06-19T01:22:34;94526.75;;;15.51;100.00
43553;BME280;29153;42.696;23.218;2023-06-19T01:24:42;94523.70;;;15.44;100.00
43553;BME280;29153;42.696;23.218;2023-06-19T01:27:10;94522.58;;;15.45;100.00
43553;BME280;29153;42.696;23.218;2023-06-19T01:29:39;94523.99;;;15.31;100.00
43553;BME280;29153;42.696;23.218;2023-06-19T01:32:10;94521.69;;;15.27;100.00
43553;BME280;29153;42.696;23.218;2023-06-19T01:34:38;94525.19;;;15.14;100.00
43553;BME280;29153;42.696;23.218;2023-06-19T01:37:07;94525.41;;;15.15;100.00
43553;BME280;29153;42.696;23.218;2023-06-19T01:39:37;94530.38;;;15.08;100.00
43553;BME280;29153;42.696;23.218;2023-06-19T01:42:07;94529.52;;;14.99;100.00
43553;BME280;29153;42.696;23.218;2023-06-19T01:44:40;94526.41;;;14.94;100.00
43553;BME280;29153;42.696;23.218;2023-06-19T01:47:13;94537.75;;;14.89;100.00
43553;BME280;29153;42.696;23.218;2023-06-19T01:49:38;94537.69;;;14.91;100.00
43553;BME280;29153;42.696;23.218;2023-06-19T01:52:06;94538.30;;;14.88;100.00
43553;BME280;29153;42.696;23.218;2023-06-19T01:54:34;94534.65;;;14.84;100.00
43553;BME280;29153;42.696;23.218;2023-06-19T01:57:06;94537.25;;;14.87;100.00
43553;BME280;29153;42.696;23.218;2023-06-19T01:59:34;94535.66;;;14.86;100.00
43553;BME280;29153;42.696;23.218;2023-06-19T02:02:02;94540.34;;;14.80;100.00
43553;BME280;29153;42.696;23.218;2023-06-19T02:04:30;94543.04;;;14.78;100.00
43553;BME280;29153;42.696;23.218;2023-06-19T02:06:59;94554.21;;;14.80;100.00
43553;BME280;29153;42.696;23.218;2023-06-19T02:09:30;94553.25;;;14.87;100.00
43553;BME280;29153;42.696;23.218;2023-06-19T02:11:57;94556.90;;;14.91;100.00
43553;BME280;29153;42.696;23.218;2023-06-19T02:14:26;94555.86;;;14.89;100.00
43553;BME280;29153;42.696;23.218;2023-06-19T02:16:58;94552.53;;;14.84;100.00
43553;BME280;29153;42.696;23.218;2023-06-19T02:19:33;94554.14;;;14.82;100.00
43553;BME280;29153;42.696;23.218;2023-06-19T02:21:59;94563.48;;;14.69;100.00
43553;BME280;29153;42.696;23.218;2023-06-19T02:24:26;94563.80;;;14.67;100.00
43553;BME280;29153;42.696;23.218;2023-06-19T02:26:54;94567.90;;;14.48;100.00
43553;BME280;29153;42.696;23.218;2023-06-19T02:29:22;94564.69;;;14.49;100.00
43553;BME280;29153;42.696;23.218;2023-06-19T02:31:49;94563.30;;;14.51;100.00
43553;BME280;29153;42.696;23.218;2023-06-19T02:34:20;94565.52;;;14.47;100.00
43553;BME280;29153;42.696;23.218;2023-06-19T02:36:49;94567.55;;;14.39;100.00
43553;BME280;29153;42.696;23.218;2023-06-19T02:39:20;94562.33;;;14.31;100.00
43553;BME280;29153;42.696;23.218;2023-06-19T02:41:50;94561.73;;;14.34;100.00
43553;BME280;29153;42.696;23.218;2023-06-19T02:44:24;94568.63;;;14.22;100.00
43553;BME280;29153;42.696;23.218;2023-06-19T02:46:54;94573.84;;;14.13;100.00
43553;BME280;29153;42.696;23.218;2023-06-19T02:49:24;94568.72;;;14.03;100.00
43553;BME280;29153;42.696;23.218;2023-06-19T02:51:54;94582.23;;;14.06;100.00
43553;BME280;29153;42.696;23.218;2023-06-19T02:54:25;94540.36;;;13.80;100.00
43553;BME280;29153;42.696;23.218;2023-06-19T02:56:54;94575.80;;;13.94;100.00
43553;BME280;29153;42.696;23.218;2023-06-19T02:59:21;94580.37;;;13.75;100.00
43553;BME280;29153;42.696;23.218;2023-06-19T03:01:50;94577.45;;;13.74;100.00
43553;BME280;29153;42.696;23.218;2023-06-19T03:04:20;94577.45;;;13.74;100.00
43553;BME280;29153;42.696;23.218;2023-06-19T03:06:49;94582.49;;;13.75;100.00
43553;BME280;29153;42.696;23.218;2023-06-19T03:09:17;94577.69;;;13.77;100.00
43553;BME280;29153;42.696;23.218;2023-06-19T03:11:46;94583.90;;;13.70;100.00
43553;BME280;29153;42.696;23.218;2023-06-19T03:14:13;94578.97;;;13.63;100.00
43553;BME280;29153;42.696;23.218;2023-06-19T03:16:45;94570.31;;;13.55;100.00
43553;BME280;29153;42.696;23.218;2023-06-19T03:19:15;94577.19;;;13.56;100.00
43553;BME280;29153;42.696;23.218;2023-06-19T03:21:48;94583.03;;;13.58;100.00
43553;BME280;29153;42.696;23.218;2023-06-19T03:24:14;94583.03;;;13.58;100.00
43553;BME280;29153;42.696;23.218;2023-06-19T03:26:42;94583.22;;;13.64;100.00
43553;BME280;29153;42.696;23.218;2023-06-19T03:29:11;94578.89;;;13.68;100.00
43553;BME280;29153;42.696;23.218;2023-06-19T03:31:39;94578.91;;;13.66;100.00
43553;BME280;29153;42.696;23.218;2023-06-19T03:34:10;94578.91;;;13.66;100.00
43553;BME280;29153;42.696;23.218;2023-06-19T03:36:37;94578.38;;;13.66;100.00
43553;BME280;29153;42.696;23.218;2023-06-19T03:39:05;94579.96;;;13.67;100.00
43553;BME280;29153;42.696;23.218;2023-06-19T03:41:34;94574.70;;;13.79;100.00
43553;BME280;29153;42.696;23.218;2023-06-19T03:51:50;94579.91;;;13.86;100.00
43553;BME280;29153;42.696;23.218;2023-06-19T03:54:20;94577.53;;;14.01;100.00
43553;BME280;29153;42.696;23.218;2023-06-19T03:56:47;94581.70;;;14.07;100.00
43553;BME280;29153;42.696;23.218;2023-06-19T03:59:18;94574.45;;;14.10;100.00
43553;BME280;29153;42.696;23.218;2023-06-19T04:01:44;94578.92;;;14.12;100.00
43553;BME280;29153;42.696;23.218;2023-06-19T04:04:16;94576.43;;;14.18;100.00
43553;BME280;29153;42.696;23.218;2023-06-19T04:06:46;94571.91;;;14.32;100.00
43553;BME280;29153;42.696;23.218;2023-06-19T04:09:25;94571.91;;;14.32;100.00
43553;BME280;29153;42.696;23.218;2023-06-19T04:12:00;94575.51;;;14.41;100.00
43553;BME280;29153;42.696;23.218;2023-06-19T04:14:31;94572.69;;;14.49;100.00
43553;BME280;29153;42.696;23.218;2023-06-19T04:17:01;94574.47;;;14.53;100.00
43553;BME280;29153;42.696;23.218;2023-06-19T04:19:31;94576.44;;;14.62;100.00
43553;BME280;29153;42.696;23.218;2023-06-19T04:22:01;94576.28;;;14.69;100.00
43553;BME280;29153;42.696;23.218;2023-06-19T04:24:35;94574.21;;;14.80;100.00
43553;BME280;29153;42.696;23.218;2023-06-19T04:27:04;94572.43;;;14.89;100.00
43553;BME280;29153;42.696;23.218;2023-06-19T04:29:34;94577.34;;;14.95;100.00
43553;BME280;29153;42.696;23.218;2023-06-19T04:32:02;94575.05;;;15.02;100.00
43553;BME280;29153;42.696;23.218;2023-06-19T04:34:31;94574.05;;;15.12;100.00
43553;BME280;29153;42.696;23.218;2023-06-19T04:36:59;94570.45;;;15.30;100.00
43553;BME280;29153;42.696;23.218;2023-06-19T04:39:30;94570.45;;;15.30;100.00
43553;BME280;29153;42.696;23.218;2023-06-19T04:41:56;94562.45;;;15.41;100.00
43553;BME280;29153;42.696;23.218;2023-06-19T04:44:23;94563.84;;;15.53;100.00
43553;BME280;29153;42.696;23.218;2023-06-19T04:46:51;94563.15;;;15.58;100.00
43553;BME280;29153;42.696;23.218;2023-06-19T04:49:20;94566.63;;;15.70;100.00
43553;BME280;29153;42.696;23.218;2023-06-19T04:51:48;94564.78;;;15.79;100.00
43553;BME280;29153;42.696;23.218;2023-06-19T04:54:15;94564.59;;;15.98;100.00
43553;BME280;29153;42.696;23.218;2023-06-19T04:56:43;94565.78;;;16.14;100.00
43553;BME280;29153;42.696;23.218;2023-06-19T04:59:12;94569.95;;;16.28;100.00
43553;BME280;29153;42.696;23.218;2023-06-19T05:01:41;94571.33;;;16.37;100.00
43553;BME280;29153;42.696;23.218;2023-06-19T05:04:09;94569.77;;;16.56;100.00
43553;BME280;29153;42.696;23.218;2023-06-19T05:06:38;94570.26;;;16.58;100.00
43553;BME280;29153;42.696;23.218;2023-06-19T05:09:06;94573.92;;;16.70;99.22
43553;BME280;29153;42.696;23.218;2023-06-19T05:11:35;94568.45;;;16.84;97.09
43553;BME280;29153;42.696;23.218;2023-06-19T05:14:03;94577.34;;;16.91;95.60
43553;BME280;29153;42.696;23.218;2023-06-19T05:16:31;94573.84;;;17.01;95.45
43553;BME280;29153;42.696;23.218;2023-06-19T05:18:58;94570.55;;;17.13;94.34
43553;BME280;29153;42.696;23.218;2023-06-19T05:21:26;94578.58;;;17.13;93.75
43553;BME280;29153;42.696;23.218;2023-06-19T05:23:54;94584.74;;;17.22;92.77
43553;BME280;29153;42.696;23.218;2023-06-19T05:26:21;94583.80;;;17.26;92.22
43553;BME280;29153;42.696;23.218;2023-06-19T05:28:50;94586.80;;;17.34;92.09
43553;BME280;29153;42.696;23.218;2023-06-19T05:31:17;94593.59;;;17.40;92.93
43553;BME280;29153;42.696;23.218;2023-06-19T05:33:45;94590.98;;;17.54;93.48
43553;BME280;29153;42.696;23.218;2023-06-19T05:36:13;94594.23;;;17.54;94.92
43553;BME280;29153;42.696;23.218;2023-06-19T05:38:40;94598.34;;;17.60;93.90
43553;BME280;29153;42.696;23.218;2023-06-19T05:41:08;94600.48;;;17.69;95.35
43553;BME280;29153;42.696;23.218;2023-06-19T05:43:36;94595.12;;;17.78;94.77
43553;BME280;29153;42.696;23.218;2023-06-19T05:46:06;94605.83;;;17.86;91.24
43553;BME280;29153;42.696;23.218;2023-06-19T05:48:37;94608.81;;;17.93;90.60
43553;BME280;29153;42.696;23.218;2023-06-19T05:51:03;94607.80;;;18.00;91.09
43553;BME280;29153;42.696;23.218;2023-06-19T05:53:30;94585.96;;;17.96;89.64
43553;BME280;29153;42.696;23.218;2023-06-19T05:55:58;94613.83;;;18.20;89.06
43553;BME280;29153;42.696;23.218;2023-06-19T05:58:25;94613.59;;;18.19;88.92
43553;BME280;29153;42.696;23.218;2023-06-19T06:00:53;94619.67;;;18.23;88.38
43553;BME280;29153;42.696;23.218;2023-06-19T06:03:23;94615.78;;;18.35;89.53
43553;BME280;29153;42.696;23.218;2023-06-19T06:05:51;94616.69;;;18.47;90.16
43553;BME280;29153;42.696;23.218;2023-06-19T06:08:19;94620.86;;;18.51;89.51
43553;BME280;29153;42.696;23.218;2023-06-19T06:10:48;94628.67;;;18.58;84.96
43553;BME280;29153;42.696;23.218;2023-06-19T06:13:15;94622.20;;;18.74;85.13
43553;BME280;29153;42.696;23.218;2023-06-19T06:15:43;94626.13;;;18.85;83.75
43553;BME280;29153;42.696;23.218;2023-06-19T06:18:11;94630.56;;;18.81;83.19
43553;BME280;29153;42.696;23.218;2023-06-19T06:20:38;94633.94;;;18.84;83.83
43553;BME280;29153;42.696;23.218;2023-06-19T06:23:06;94631.77;;;18.92;84.18
43553;BME280;29153;42.696;23.218;2023-06-19T06:25:34;94632.24;;;19.09;83.12
43553;BME280;29153;42.696;23.218;2023-06-19T06:28:05;94641.70;;;19.15;78.30
43553;BME280;29153;42.696;23.218;2023-06-19T06:30:31;94640.73;;;19.20;78.21
43553;BME280;29153;42.696;23.218;2023-06-19T06:32:59;94642.82;;;19.29;78.68
43553;BME280;29153;42.696;23.218;2023-06-19T06:35:26;94642.11;;;19.26;79.06
43553;BME280;29153;42.696;23.218;2023-06-19T06:37:54;94645.09;;;19.33;77.64
43553;BME280;29153;42.696;23.218;2023-06-19T06:40:21;94646.69;;;19.40;76.73
43553;BME280;29153;42.696;23.218;2023-06-19T06:42:55;94647.88;;;19.45;79.08
43553;BME280;29153;42.696;23.218;2023-06-19T06:45:23;94649.69;;;19.38;75.40
43553;BME280;29153;42.696;23.218;2023-06-19T06:47:50;94652.47;;;19.44;76.67
43553;BME280;29153;42.696;23.218;2023-06-19T06:50:18;94646.59;;;19.51;78.61
43553;BME280;29153;42.696;23.218;2023-06-19T06:52:46;94647.94;;;19.51;77.35
43553;BME280;29153;42.696;23.218;2023-06-19T06:55:13;94646.59;;;19.51;76.81
43553;BME280;29153;42.696;23.218;2023-06-19T06:57:41;94646.55;;;19.66;78.73
43553;BME280;29153;42.696;23.218;2023-06-19T07:00:09;94647.23;;;19.69;77.25
43553;BME280;29153;42.696;23.218;2023-06-19T07:02:38;94646.69;;;19.69;76.21
43553;BME280;29153;42.696;23.218;2023-06-19T07:05:09;94639.45;;;19.76;75.96
43553;BME280;29153;42.696;23.218;2023-06-19T07:07:38;94642.16;;;19.82;75.68
43553;BME280;29153;42.696;23.218;2023-06-19T07:10:06;94640.20;;;19.91;75.43
43553;BME280;29153;42.696;23.218;2023-06-19T07:12:34;94644.14;;;19.93;74.57
43553;BME280;29153;42.696;23.218;2023-06-19T07:15:02;94637.38;;;19.87;74.85
43553;BME280;29153;42.696;23.218;2023-06-19T07:17:30;94641.03;;;20.04;74.38
43553;BME280;29153;42.696;23.218;2023-06-19T07:20:03;94646.84;;;19.99;73.11
43553;BME280;29153;42.696;23.218;2023-06-19T07:22:27;94642.73;;;20.08;72.95
43553;BME280;29153;42.696;23.218;2023-06-19T07:24:54;94640.96;;;20.12;72.97
43553;BME280;29153;42.696;23.218;2023-06-19T07:27:22;94646.73;;;20.29;74.46
43553;BME280;29153;42.696;23.218;2023-06-19T07:29:59;94656.11;;;20.37;70.87
43553;BME280;29153;42.696;23.218;2023-06-19T07:32:23;94654.38;;;20.60;73.02
43553;BME280;29153;42.696;23.218;2023-06-19T07:34:50;94611.66;;;20.64;76.46
43553;BME280;29153;42.696;23.218;2023-06-19T07:37:18;94645.61;;;21.14;76.07
43553;BME280;29153;42.696;23.218;2023-06-19T07:39:47;94655.59;;;21.44;70.90
43553;BME280;29153;42.696;23.218;2023-06-19T07:42:16;94651.41;;;21.76;67.98
43553;BME280;29153;42.696;23.218;2023-06-19T07:44:53;94648.91;;;21.96;60.99
43553;BME280;29153;42.696;23.218;2023-06-19T07:47:17;94645.88;;;22.25;62.55
43553;BME280;29153;42.696;23.218;2023-06-19T07:49:45;94649.17;;;22.74;65.15
43553;BME280;29153;42.696;23.218;2023-06-19T07:52:13;94654.75;;;22.81;57.51
43553;BME280;29153;42.696;23.218;2023-06-19T07:54:57;94650.05;;;23.25;59.36
43553;BME280;29153;42.696;23.218;2023-06-19T07:57:27;94646.52;;;23.72;56.75
43553;BME280;29153;42.696;23.218;2023-06-19T07:59:55;94640.73;;;24.08;56.48
43553;BME280;29153;42.696;23.218;2023-06-19T08:02:22;94646.39;;;24.38;55.65
43553;BME280;29153;42.696;23.218;2023-06-19T08:04:50;94635.41;;;24.31;50.18
43553;BME280;29153;42.696;23.218;2023-06-19T08:07:18;94648.94;;;24.40;50.99
43553;BME280;29153;42.696;23.218;2023-06-19T08:09:45;94645.51;;;24.53;49.42
43553;BME280;29153;42.696;23.218;2023-06-19T08:12:13;94645.01;;;24.47;49.42
43553;BME280;29153;42.696;23.218;2023-06-19T08:14:40;94639.56;;;25.09;53.92
43553;BME280;29153;42.696;23.218;2023-06-19T08:17:10;94637.17;;;25.53;53.49
43553;BME280;29153;42.696;23.218;2023-06-19T08:19:37;94636.89;;;25.58;49.29
43553;BME280;29153;42.696;23.218;2023-06-19T08:22:06;94635.01;;;25.62;47.04
43553;BME280;29153;42.696;23.218;2023-06-19T08:24:34;94639.70;;;25.65;46.09
43553;BME280;29153;42.696;23.218;2023-06-19T08:27:03;94640.22;;;25.74;45.00
43553;BME280;29153;42.696;23.218;2023-06-19T08:29:34;94637.03;;;25.68;48.10
43553;BME280;29153;42.696;23.218;2023-06-19T08:32:01;94643.84;;;25.98;51.53
43553;BME280;29153;42.696;23.218;2023-06-19T08:34:32;94640.41;;;26.01;43.08
43553;BME280;29153;42.696;23.218;2023-06-19T08:36:58;94642.36;;;26.17;49.17
43553;BME280;29153;42.696;23.218;2023-06-19T08:39:25;94639.95;;;26.12;44.66
43553;BME280;29153;42.696;23.218;2023-06-19T08:41:52;94638.31;;;26.34;42.66
43553;BME280;29153;42.696;23.218;2023-06-19T08:44:19;94642.37;;;26.67;45.44
43553;BME280;29153;42.696;23.218;2023-06-19T08:46:46;94639.67;;;26.34;45.03
43553;BME280;29153;42.696;23.218;2023-06-19T08:49:13;94635.16;;;26.82;49.29
43553;BME280;29153;42.696;23.218;2023-06-19T08:51:41;94633.22;;;26.99;47.05
43553;BME280;29153;42.696;23.218;2023-06-19T08:54:08;94630.38;;;26.89;47.81
43553;BME280;29153;42.696;23.218;2023-06-19T08:56:37;94629.56;;;26.68;42.08
43553;BME280;29153;42.696;23.218;2023-06-19T08:59:12;94635.84;;;26.76;43.13
43553;BME280;29153;42.696;23.218;2023-06-19T09:01:46;94639.17;;;26.79;47.48
43553;BME280;29153;42.696;23.218;2023-06-19T09:04:11;94634.18;;;27.01;47.94
43553;BME280;29153;42.696;23.218;2023-06-19T09:06:53;94635.12;;;26.95;43.10
43553;BME280;29153;42.696;23.218;2023-06-19T09:09:22;94636.75;;;27.03;41.96
43553;BME280;29153;42.696;23.218;2023-06-19T09:12:12;94632.12;;;26.20;40.31
43553;BME280;29153;42.696;23.218;2023-06-19T09:14:43;94631.61;;;26.61;44.00
43553;BME280;29153;42.696;23.218;2023-06-19T09:17:21;94620.98;;;26.83;46.89
43553;BME280;29153;42.696;23.218;2023-06-19T09:19:48;94629.78;;;26.69;41.46
43553;BME280;29153;42.696;23.218;2023-06-19T09:22:18;94626.94;;;26.79;49.66
43553;BME280;29153;42.696;23.218;2023-06-19T09:24:46;94636.92;;;26.47;42.48
43553;BME280;29153;42.696;23.218;2023-06-19T09:27:18;94632.20;;;26.27;41.86
43553;BME280;29153;42.696;23.218;2023-06-19T09:29:48;94631.30;;;26.03;43.66
43553;BME280;29153;42.696;23.218;2023-06-19T09:32:20;94623.62;;;26.39;44.68
43553;BME280;29153;42.696;23.218;2023-06-19T09:34:49;94625.13;;;26.53;43.28
43553;BME280;29153;42.696;23.218;2023-06-19T09:37:21;94630.70;;;26.47;42.39
43553;BME280;29153;42.696;23.218;2023-06-19T09:39:50;94633.70;;;26.08;40.97
43553;BME280;29153;42.696;23.218;2023-06-19T09:42:18;94632.12;;;26.07;42.89
43553;BME280;29153;42.696;23.218;2023-06-19T09:44:52;94626.83;;;26.01;42.22
43553;BME280;29153;42.696;23.218;2023-06-19T09:47:23;94622.66;;;26.41;54.01
43553;BME280;29153;42.696;23.218;2023-06-19T09:49:56;94621.14;;;26.60;47.96
43553;BME280;29153;42.696;23.218;2023-06-19T09:52:24;94626.64;;;26.67;44.37
43553;BME280;29153;42.696;23.218;2023-06-19T09:54:52;94621.95;;;26.64;49.42
43553;BME280;29153;42.696;23.218;2023-06-19T09:57:21;94624.69;;;26.47;45.00
43553;BME280;29153;42.696;23.218;2023-06-19T09:59:52;94617.52;;;26.65;45.39
43553;BME280;29153;42.696;23.218;2023-06-19T10:02:20;94614.41;;;26.67;47.92
43553;BME280;29153;42.696;23.218;2023-06-19T10:04:54;94626.13;;;26.38;41.14
43553;BME280;29153;42.696;23.218;2023-06-19T10:07:24;94623.08;;;26.43;45.92
43553;BME280;29153;42.696;23.218;2023-06-19T10:10:08;94616.24;;;26.56;45.33
43553;BME280;29153;42.696;23.218;2023-06-19T10:12:41;94610.09;;;26.12;42.68
43553;BME280;29153;42.696;23.218;2023-06-19T10:15:10;94609.71;;;26.44;48.02
43553;BME280;29153;42.696;23.218;2023-06-19T10:17:53;94601.06;;;26.71;49.70
43553;BME280;29153;42.696;23.218;2023-06-19T10:20:28;94615.33;;;26.45;39.96
43553;BME280;29153;42.696;23.218;2023-06-19T10:23:08;94599.30;;;26.19;42.80
43553;BME280;29153;42.696;23.218;2023-06-19T10:25:38;94596.70;;;26.43;47.27
43553;BME280;29153;42.696;23.218;2023-06-19T10:30:58;94598.04;;;26.60;43.86
43553;BME280;29153;42.696;23.218;2023-06-19T10:33:28;94593.25;;;26.30;43.09
43553;BME280;29153;42.696;23.218;2023-06-19T10:36:24;94594.53;;;26.22;43.18
43553;BME280;29153;42.696;23.218;2023-06-19T10:38:47;94591.56;;;25.88;42.66
43553;BME280;29153;42.696;23.218;2023-06-19T10:41:20;94588.69;;;26.07;46.39
43553;BME280;29153;42.696;23.218;2023-06-19T10:44:13;94587.20;;;26.26;43.01
43553;BME280;29153;42.696;23.218;2023-06-19T10:46:39;94586.75;;;26.21;45.87
43553;BME280;29153;42.696;23.218;2023-06-19T10:49:08;94585.22;;;26.10;41.15
43553;BME280;29153;42.696;23.218;2023-06-19T10:51:37;94575.80;;;26.31;46.61
43553;BME280;29153;42.696;23.218;2023-06-19T10:54:06;94585.20;;;26.57;52.85
43553;BME280;29153;42.696;23.218;2023-06-19T10:56:35;94590.48;;;26.43;46.71
43553;BME280;29153;42.696;23.218;2023-06-19T10:59:13;94585.53;;;26.52;49.43
43553;BME280;29153;42.696;23.218;2023-06-19T11:01:45;94581.37;;;26.45;45.68
43553;BME280;29153;42.696;23.218;2023-06-19T11:04:15;94581.14;;;26.23;42.52
43553;BME280;29153;42.696;23.218;2023-06-19T11:06:44;94577.47;;;26.42;46.53
43553;BME280;29153;42.696;23.218;2023-06-19T11:09:13;94578.38;;;26.37;42.81
43553;BME280;29153;42.696;23.218;2023-06-19T11:11:43;94567.66;;;26.51;42.91
43553;BME280;29153;42.696;23.218;2023-06-19T11:14:13;94571.01;;;26.74;48.97
43553;BME280;29153;42.696;23.218;2023-06-19T11:16:44;94565.77;;;26.79;46.50
43553;BME280;29153;42.696;23.218;2023-06-19T11:19:16;94565.26;;;26.83;48.73
43553;BME280;29153;42.696;23.218;2023-06-19T11:21:46;94562.25;;;26.91;44.39
43553;BME280;29153;42.696;23.218;2023-06-19T11:24:15;94556.52;;;26.43;42.93
43553;BME280;29153;42.696;23.218;2023-06-19T11:26:45;94561.59;;;26.64;46.02
43553;BME280;29153;42.696;23.218;2023-06-19T11:29:18;94560.06;;;26.13;44.44
43553;BME280;29153;42.696;23.218;2023-06-19T11:31:47;94559.39;;;26.07;46.40
43553;BME280;29153;42.696;23.218;2023-06-19T11:34:16;94556.06;;;25.87;45.45
43553;BME280;29153;42.696;23.218;2023-06-19T11:36:44;94561.88;;;25.72;48.25
43553;BME280;29153;42.696;23.218;2023-06-19T11:39:21;94558.88;;;26.14;48.56
43553;BME280;29153;42.696;23.218;2023-06-19T11:41:45;94548.46;;;26.33;49.90
43553;BME280;29153;42.696;23.218;2023-06-19T11:44:14;94550.91;;;26.45;45.97
43553;BME280;29153;42.696;23.218;2023-06-19T11:46:43;94553.65;;;26.28;46.48
43553;BME280;29153;42.696;23.218;2023-06-19T11:49:14;94551.78;;;26.36;44.87
43553;BME280;29153;42.696;23.218;2023-06-19T11:51:43;94553.34;;;26.57;47.77
43553;BME280;29153;42.696;23.218;2023-06-19T11:54:14;94552.94;;;26.76;44.97
43553;BME280;29153;42.696;23.218;2023-06-19T11:56:48;94553.26;;;26.87;46.85
43553;BME280;29153;42.696;23.218;2023-06-19T11:59:17;94543.73;;;27.07;48.40
43553;BME280;29153;42.696;23.218;2023-06-19T12:01:44;94546.56;;;26.98;48.14
43553;BME280;29153;42.696;23.218;2023-06-19T12:04:11;94547.19;;;26.84;50.67
43553;BME280;29153;42.696;23.218;2023-06-19T12:06:40;94541.74;;;27.04;49.91
43553;BME280;29153;42.696;23.218;2023-06-19T12:09:06;94493.84;;;26.86;48.67
43553;BME280;29153;42.696;23.218;2023-06-19T12:11:36;94536.81;;;26.93;45.16
43553;BME280;29153;42.696;23.218;2023-06-19T12:14:04;94537.47;;;26.83;50.49
43553;BME280;29153;42.696;23.218;2023-06-19T12:16:34;94547.64;;;26.86;45.93
43553;BME280;29153;42.696;23.218;2023-06-19T12:19:01;94537.39;;;26.72;43.67
43553;BME280;29153;42.696;23.218;2023-06-19T12:21:29;94542.78;;;26.49;44.87
43553;BME280;29153;42.696;23.218;2023-06-19T12:23:55;94531.73;;;26.48;50.58
43553;BME280;29153;42.696;23.218;2023-06-19T12:26:23;94536.59;;;26.48;43.40
43553;BME280;29153;42.696;23.218;2023-06-19T12:28:53;94535.13;;;26.38;43.85
43553;BME280;29153;42.696;23.218;2023-06-19T12:31:20;94527.98;;;26.63;47.88
43553;BME280;29153;42.696;23.218;2023-06-19T12:33:49;94528.50;;;26.79;45.11
43553;BME280;29153;42.696;23.218;2023-06-19T12:36:18;94529.63;;;26.91;44.01
43553;BME280;29153;42.696;23.218;2023-06-19T12:38:45;94535.39;;;26.46;44.10
43553;BME280;29153;42.696;23.218;2023-06-19T12:41:15;94531.97;;;26.19;46.68
43553;BME280;29153;42.696;23.218;2023-06-19T12:43:43;94534.66;;;26.15;46.05
43553;BME280;29153;42.696;23.218;2023-06-19T12:46:10;94526.81;;;25.90;45.22
43553;BME280;29153;42.696;23.218;2023-06-19T12:48:37;94530.52;;;25.75;46.00
43553;BME280;29153;42.696;23.218;2023-06-19T12:51:04;94528.73;;;25.90;46.15
43553;BME280;29153;42.696;23.218;2023-06-19T12:53:31;94531.02;;;26.01;45.98
43553;BME280;29153;42.696;23.218;2023-06-19T12:55:59;94533.55;;;26.37;46.02
43553;BME280;29153;42.696;23.218;2023-06-19T12:58:27;94527.45;;;26.26;45.48
43553;BME280;29153;42.696;23.218;2023-06-19T13:00:54;94536.14;;;26.22;43.62
43553;BME280;29153;42.696;23.218;2023-06-19T13:03:21;94479.77;;;25.79;45.84
43553;BME280;29153;42.696;23.218;2023-06-19T13:05:49;94531.58;;;26.17;44.93